sensor_id;sensor_type;location;lat;lon;timestamp;temperature;humidity
11818;DHT22;5966;52.402;5.322;2022-12-01T00:02:19;6.30;99.90
11818;DHT22;5966;52.402;5.322;2022-12-01T00:04:47;6.30;99.90
11818;DHT22;5966;52.402;5.322;2022-12-01T00:07:15;6.30;99.90
11818;DHT22;5966;52.402;5.322;2022-12-01T00:09:43;6.30;99.90
11818;DHT22;5966;52.402;5.322;2022-12-01T00:12:30;6.30;99.90
11818;DHT22;5966;52.402;5.322;2022-12-01T00:15:04;6.30;99.90
11818;DHT22;5966;52.402;5.322;2022-12-01T00:17:32;6.30;99.90
11818;DHT22;5966;52.402;5.322;2022-12-01T00:20:00;6.30;99.90
11818;DHT22;5966;52.402;5.322;2022-12-01T00:22:28;6.30;99.90
11818;DHT22;5966;52.402;5.322;2022-12-01T00:24:56;6.30;99.90
11818;DHT22;5966;52.402;5.322;2022-12-01T00:27:24;6.30;99.90
11818;DHT22;5966;52.402;5.322;2022-12-01T00:29:51;6.30;99.90
11818;DHT22;5966;52.402;5.322;2022-12-01T00:32:23;6.40;99.90
11818;DHT22;5966;52.402;5.322;2022-12-01T00:34:51;6.40;99.90
11818;DHT22;5966;52.402;5.322;2022-12-01T00:37:18;6.40;99.90
11818;DHT22;5966;52.402;5.322;2022-12-01T00:39:47;6.40;99.90
11818;DHT22;5966;52.402;5.322;2022-12-01T00:42:16;6.40;99.90
11818;DHT22;5966;52.402;5.322;2022-12-01T00:44:46;6.40;99.90
11818;DHT22;5966;52.402;5.322;2022-12-01T00:47:16;6.40;99.90
11818;DHT22;5966;52.402;5.322;2022-12-01T00:49:46;6.40;99.90
11818;DHT22;5966;52.402;5.322;2022-12-01T00:52:15;6.40;99.90
11818;DHT22;5966;52.402;5.322;2022-12-01T00:54:43;6.40;99.90
11818;DHT22;5966;52.402;5.322;2022-12-01T00:57:12;6.30;99.90
11818;DHT22;5966;52.402;5.322;2022-12-01T00:59:40;6.40;99.90
11818;DHT22;5966;52.402;5.322;2022-12-01T01:02:08;6.40;99.90
11818;DHT22;5966;52.402;5.322;2022-12-01T01:04:36;6.40;99.90
11818;DHT22;5966;52.402;5.322;2022-12-01T01:07:09;6.40;99.90
11818;DHT22;5966;52.402;5.322;2022-12-01T01:09:38;6.40;99.90
11818;DHT22;5966;52.402;5.322;2022-12-01T01:12:06;6.40;99.90
11818;DHT22;5966;52.402;5.322;2022-12-01T01:14:35;6.40;99.90
11818;DHT22;5966;52.402;5.322;2022-12-01T01:17:04;6.40;99.90
11818;DHT22;5966;52.402;5.322;2022-12-01T01:19:36;6.40;99.90
11818;DHT22;5966;52.402;5.322;2022-12-01T01:22:08;6.30;99.90
11818;DHT22;5966;52.402;5.322;2022-12-01T01:24:40;6.40;99.90
11818;DHT22;5966;52.402;5.322;2022-12-01T01:27:09;6.40;99.90
11818;DHT22;5966;52.402;5.322;2022-12-01T01:29:40;6.40;99.90
11818;DHT22;5966;52.402;5.322;2022-12-01T01:32:16;6.40;99.90
11818;DHT22;5966;52.402;5.322;2022-12-01T01:34:46;6.40;99.90
11818;DHT22;5966;52.402;5.322;2022-12-01T01:37:16;6.40;99.90
11818;DHT22;5966;52.402;5.322;2022-12-01T01:39:54;6.40;99.90
11818;DHT22;5966;52.402;5.322;2022-12-01T01:42:25;6.40;99.90
11818;DHT22;5966;52.402;5.322;2022-12-01T01:44:55;6.40;99.90
11818;DHT22;5966;52.402;5.322;2022-12-01T01:47:26;6.30;99.90
11818;DHT22;5966;52.402;5.322;2022-12-01T01:50:08;6.30;99.90
11818;DHT22;5966;52.402;5.322;2022-12-01T01:52:41;6.20;99.90
11818;DHT22;5966;52.402;5.322;2022-12-01T01:55:11;6.20;99.90
11818;DHT22;5966;52.402;5.322;2022-12-01T01:57:39;6.20;99.90
11818;DHT22;5966;52.402;5.322;2022-12-01T02:00:11;6.10;99.90
11818;DHT22;5966;52.402;5.322;2022-12-01T02:02:40;6.10;99.90
11818;DHT22;5966;52.402;5.322;2022-12-01T02:05:12;6.10;99.90
11818;DHT22;5966;52.402;5.322;2022-12-01T02:07:42;6.10;99.90
11818;DHT22;5966;52.402;5.322;2022-12-01T02:10:12;6.10;99.90
11818;DHT22;5966;52.402;5.322;2022-12-01T02:13:05;6.20;99.90
11818;DHT22;5966;52.402;5.322;2022-12-01T02:15:39;6.20;99.90
11818;DHT22;5966;52.402;5.322;2022-12-01T02:18:21;6.20;99.90
11818;DHT22;5966;52.402;5.322;2022-12-01T02:21:12;6.10;99.90
11818;DHT22;5966;52.402;5.322;2022-12-01T02:24:20;6.00;99.90
11818;DHT22;5966;52.402;5.322;2022-12-01T02:26:58;6.00;99.90
11818;DHT22;5966;52.402;5.322;2022-12-01T02:30:07;6.00;99.90
11818;DHT22;5966;52.402;5.322;2022-12-01T02:32:52;6.00;99.90
11818;DHT22;5966;52.402;5.322;2022-12-01T02:35:31;6.00;99.90
11818;DHT22;5966;52.402;5.322;2022-12-01T02:38:15;6.00;99.90
11818;DHT22;5966;52.402;5.322;2022-12-01T02:40:50;6.00;99.90
11818;DHT22;5966;52.402;5.322;2022-12-01T02:43:26;6.10;99.90
11818;DHT22;5966;52.402;5.322;2022-12-01T02:46:07;6.10;99.90
11818;DHT22;5966;52.402;5.322;2022-12-01T02:48:39;6.10;99.90
11818;DHT22;5966;52.402;5.322;2022-12-01T02:51:12;6.10;99.90
11818;DHT22;5966;52.402;5.322;2022-12-01T02:53:41;6.10;99.90
11818;DHT22;5966;52.402;5.322;2022-12-01T02:56:12;6.10;99.90
11818;DHT22;5966;52.402;5.322;2022-12-01T02:58:42;6.00;99.90
11818;DHT22;5966;52.402;5.322;2022-12-01T03:01:22;6.00;99.90
11818;DHT22;5966;52.402;5.322;2022-12-01T03:04:06;6.00;99.90
11818;DHT22;5966;52.402;5.322;2022-12-01T03:06:43;6.00;99.90
11818;DHT22;5966;52.402;5.322;2022-12-01T03:09:18;6.00;99.90
11818;DHT22;5966;52.402;5.322;2022-12-01T03:11:57;5.90;99.90
11818;DHT22;5966;52.402;5.322;2022-12-01T03:14:36;5.90;99.90
11818;DHT22;5966;52.402;5.322;2022-12-01T03:17:16;6.00;99.90
11818;DHT22;5966;52.402;5.322;2022-12-01T03:19:57;6.00;99.90
11818;DHT22;5966;52.402;5.322;2022-12-01T03:22:36;5.90;99.90
11818;DHT22;5966;52.402;5.322;2022-12-01T03:25:06;5.90;99.90
11818;DHT22;5966;52.402;5.322;2022-12-01T03:27:39;5.90;99.90
11818;DHT22;5966;52.402;5.322;2022-12-01T03:30:29;5.90;99.90
11818;DHT22;5966;52.402;5.322;2022-12-01T03:33:02;5.90;99.90
11818;DHT22;5966;52.402;5.322;2022-12-01T03:35:38;5.90;99.90
11818;DHT22;5966;52.402;5.322;2022-12-01T03:38:11;5.90;99.90
11818;DHT22;5966;52.402;5.322;2022-12-01T03:40:42;5.90;99.90
11818;DHT22;5966;52.402;5.322;2022-12-01T03:43:14;6.00;99.90
11818;DHT22;5966;52.402;5.322;2022-12-01T03:45:51;6.00;99.90
11818;DHT22;5966;52.402;5.322;2022-12-01T03:48:22;6.00;99.90
11818;DHT22;5966;52.402;5.322;2022-12-01T03:51:00;6.00;99.90
11818;DHT22;5966;52.402;5.322;2022-12-01T03:53:34;6.10;99.90
11818;DHT22;5966;52.402;5.322;2022-12-01T03:56:06;6.10;99.90
11818;DHT22;5966;52.402;5.322;2022-12-01T03:58:38;6.20;99.90
11818;DHT22;5966;52.402;5.322;2022-12-01T04:01:08;6.20;99.90
11818;DHT22;5966;52.402;5.322;2022-12-01T04:03:36;6.20;99.90
11818;DHT22;5966;52.402;5.322;2022-12-01T04:06:06;6.20;99.90
11818;DHT22;5966;52.402;5.322;2022-12-01T04:08:34;6.20;99.90
11818;DHT22;5966;52.402;5.322;2022-12-01T04:11:03;6.10;99.90
11818;DHT22;5966;52.402;5.322;2022-12-01T04:13:58;6.10;99.90
11818;DHT22;5966;52.402;5.322;2022-12-01T04:16:25;6.10;99.90
11818;DHT22;5966;52.402;5.322;2022-12-01T04:18:53;6.00;99.90
11818;DHT22;5966;52.402;5.322;2022-12-01T04:21:22;6.00;99.90
11818;DHT22;5966;52.402;5.322;2022-12-01T04:23:50;5.90;99.90
11818;DHT22;5966;52.402;5.322;2022-12-01T04:26:36;5.80;99.90
11818;DHT22;5966;52.402;5.322;2022-12-01T04:29:06;5.90;99.90
11818;DHT22;5966;52.402;5.322;2022-12-01T04:31:39;5.80;99.90
11818;DHT22;5966;52.402;5.322;2022-12-01T04:34:08;5.80;99.90
11818;DHT22;5966;52.402;5.322;2022-12-01T04:36:38;5.80;99.90
11818;DHT22;5966;52.402;5.322;2022-12-01T04:39:08;5.70;99.90
11818;DHT22;5966;52.402;5.322;2022-12-01T04:41:36;5.60;99.90
11818;DHT22;5966;52.402;5.322;2022-12-01T04:44:04;5.60;99.90
11818;DHT22;5966;52.402;5.322;2022-12-01T04:46:32;5.60;99.90
11818;DHT22;5966;52.402;5.322;2022-12-01T04:49:00;5.50;99.90
11818;DHT22;5966;52.402;5.322;2022-12-01T04:51:28;5.50;99.90
11818;DHT22;5966;52.402;5.322;2022-12-01T04:54:00;5.50;99.90
11818;DHT22;5966;52.402;5.322;2022-12-01T04:56:28;5.50;99.90
11818;DHT22;5966;52.402;5.322;2022-12-01T04:58:56;5.40;99.90
11818;DHT22;5966;52.402;5.322;2022-12-01T05:01:25;5.40;99.90
11818;DHT22;5966;52.402;5.322;2022-12-01T05:03:53;5.40;99.90
11818;DHT22;5966;52.402;5.322;2022-12-01T05:06:22;5.40;99.90
11818;DHT22;5966;52.402;5.322;2022-12-01T05:08:54;5.40;99.90
11818;DHT22;5966;52.402;5.322;2022-12-01T05:11:24;5.40;99.90
11818;DHT22;5966;52.402;5.322;2022-12-01T05:13:55;5.40;99.90
11818;DHT22;5966;52.402;5.322;2022-12-01T05:16:29;5.40;99.90
11818;DHT22;5966;52.402;5.322;2022-12-01T05:19:00;5.50;99.90
11818;DHT22;5966;52.402;5.322;2022-12-01T05:22:16;5.50;99.90
11818;DHT22;5966;52.402;5.322;2022-12-01T05:34:08;5.50;99.90
11818;DHT22;5966;52.402;5.322;2022-12-01T05:36:49;5.50;99.90
11818;DHT22;5966;52.402;5.322;2022-12-01T05:40:03;5.50;99.90
11818;DHT22;5966;52.402;5.322;2022-12-01T05:45:31;5.50;99.90
11818;DHT22;5966;52.402;5.322;2022-12-01T05:48:01;5.50;99.90
11818;DHT22;5966;52.402;5.322;2022-12-01T05:50:31;5.50;99.90
11818;DHT22;5966;52.402;5.322;2022-12-01T05:52:59;5.60;99.90
11818;DHT22;5966;52.402;5.322;2022-12-01T05:55:27;5.60;99.90
11818;DHT22;5966;52.402;5.322;2022-12-01T05:57:55;5.60;99.90
11818;DHT22;5966;52.402;5.322;2022-12-01T06:00:23;5.60;99.90
11818;DHT22;5966;52.402;5.322;2022-12-01T06:02:51;5.60;99.90
11818;DHT22;5966;52.402;5.322;2022-12-01T06:05:19;5.50;99.90
11818;DHT22;5966;52.402;5.322;2022-12-01T06:07:48;5.50;99.90
11818;DHT22;5966;52.402;5.322;2022-12-01T06:10:17;5.50;99.90
11818;DHT22;5966;52.402;5.322;2022-12-01T06:12:46;5.50;99.90
11818;DHT22;5966;52.402;5.322;2022-12-01T06:15:15;5.50;99.90
11818;DHT22;5966;52.402;5.322;2022-12-01T06:17:44;5.50;99.90
11818;DHT22;5966;52.402;5.322;2022-12-01T06:20:22;5.50;99.90
11818;DHT22;5966;52.402;5.322;2022-12-01T06:22:55;5.50;99.90
11818;DHT22;5966;52.402;5.322;2022-12-01T06:25:26;5.40;99.90
11818;DHT22;5966;52.402;5.322;2022-12-01T06:27:55;5.40;99.90
11818;DHT22;5966;52.402;5.322;2022-12-01T06:30:33;5.30;99.90
11818;DHT22;5966;52.402;5.322;2022-12-01T06:33:28;5.30;99.90
11818;DHT22;5966;52.402;5.322;2022-12-01T06:35:57;5.30;99.90
11818;DHT22;5966;52.402;5.322;2022-12-01T06:38:29;5.20;99.90
11818;DHT22;5966;52.402;5.322;2022-12-01T06:40:57;5.20;99.90
11818;DHT22;5966;52.402;5.322;2022-12-01T06:43:25;5.10;99.90
11818;DHT22;5966;52.402;5.322;2022-12-01T06:45:53;5.10;99.90
11818;DHT22;5966;52.402;5.322;2022-12-01T06:48:27;5.10;99.90
11818;DHT22;5966;52.402;5.322;2022-12-01T06:50:56;5.10;99.90
11818;DHT22;5966;52.402;5.322;2022-12-01T06:53:24;5.10;99.90
11818;DHT22;5966;52.402;5.322;2022-12-01T06:55:57;5.10;99.90
11818;DHT22;5966;52.402;5.322;2022-12-01T06:58:26;5.20;99.90
11818;DHT22;5966;52.402;5.322;2022-12-01T07:00:54;5.20;99.90
11818;DHT22;5966;52.402;5.322;2022-12-01T07:03:23;5.20;99.90
11818;DHT22;5966;52.402;5.322;2022-12-01T07:05:54;5.20;99.90
11818;DHT22;5966;52.402;5.322;2022-12-01T07:08:24;5.20;99.90
11818;DHT22;5966;52.402;5.322;2022-12-01T07:11:00;5.20;99.90
11818;DHT22;5966;52.402;5.322;2022-12-01T07:13:57;5.20;99.90
11818;DHT22;5966;52.402;5.322;2022-12-01T07:17:11;5.30;99.90
11818;DHT22;5966;52.402;5.322;2022-12-01T07:19:39;5.30;99.90
11818;DHT22;5966;52.402;5.322;2022-12-01T07:22:07;5.30;99.90
11818;DHT22;5966;52.402;5.322;2022-12-01T07:24:35;5.30;99.90
11818;DHT22;5966;52.402;5.322;2022-12-01T07:27:04;5.30;99.90
11818;DHT22;5966;52.402;5.322;2022-12-01T07:29:32;5.30;99.90
11818;DHT22;5966;52.402;5.322;2022-12-01T07:32:00;5.30;99.90
11818;DHT22;5966;52.402;5.322;2022-12-01T07:34:28;5.30;99.90
11818;DHT22;5966;52.402;5.322;2022-12-01T07:36:55;5.40;99.90
11818;DHT22;5966;52.402;5.322;2022-12-01T07:39:23;5.40;99.90
11818;DHT22;5966;52.402;5.322;2022-12-01T07:41:51;5.40;99.90
11818;DHT22;5966;52.402;5.322;2022-12-01T07:44:21;5.50;99.90
11818;DHT22;5966;52.402;5.322;2022-12-01T07:46:49;5.50;99.90
11818;DHT22;5966;52.402;5.322;2022-12-01T07:49:17;5.50;99.90
11818;DHT22;5966;52.402;5.322;2022-12-01T07:51:45;5.50;99.90
11818;DHT22;5966;52.402;5.322;2022-12-01T07:54:13;5.50;99.90
11818;DHT22;5966;52.402;5.322;2022-12-01T07:56:42;5.50;99.90
11818;DHT22;5966;52.402;5.322;2022-12-01T07:59:10;5.60;99.90
11818;DHT22;5966;52.402;5.322;2022-12-01T08:01:40;5.60;99.90
11818;DHT22;5966;52.402;5.322;2022-12-01T08:04:11;5.60;99.90
11818;DHT22;5966;52.402;5.322;2022-12-01T08:07:29;5.60;99.90
11818;DHT22;5966;52.402;5.322;2022-12-01T08:10:03;5.60;99.90
11818;DHT22;5966;52.402;5.322;2022-12-01T08:12:42;5.60;99.90
11818;DHT22;5966;52.402;5.322;2022-12-01T08:15:12;5.70;99.90
11818;DHT22;5966;52.402;5.322;2022-12-01T08:17:43;5.60;99.90
11818;DHT22;5966;52.402;5.322;2022-12-01T08:20:25;5.70;99.90
11818;DHT22;5966;52.402;5.322;2022-12-01T08:22:58;5.80;99.90
11818;DHT22;5966;52.402;5.322;2022-12-01T08:25:36;5.80;99.90
11818;DHT22;5966;52.402;5.322;2022-12-01T08:28:22;5.80;99.90
11818;DHT22;5966;52.402;5.322;2022-12-01T08:30:50;5.80;99.90
11818;DHT22;5966;52.402;5.322;2022-12-01T08:33:20;5.90;99.90
11818;DHT22;5966;52.402;5.322;2022-12-01T08:35:49;5.90;99.90
11818;DHT22;5966;52.402;5.322;2022-12-01T08:38:20;5.90;99.90
11818;DHT22;5966;52.402;5.322;2022-12-01T08:40:48;5.90;99.90
11818;DHT22;5966;52.402;5.322;2022-12-01T08:43:16;5.90;99.90
11818;DHT22;5966;52.402;5.322;2022-12-01T08:46:05;5.90;99.90
11818;DHT22;5966;52.402;5.322;2022-12-01T08:48:36;5.80;99.90
11818;DHT22;5966;52.402;5.322;2022-12-01T08:51:07;5.80;99.90
11818;DHT22;5966;52.402;5.322;2022-12-01T08:53:50;5.80;99.90
11818;DHT22;5966;52.402;5.322;2022-12-01T08:56:38;5.80;99.90
11818;DHT22;5966;52.402;5.322;2022-12-01T08:59:43;5.80;99.90
11818;DHT22;5966;52.402;5.322;2022-12-01T09:06:21;5.80;99.90
11818;DHT22;5966;52.402;5.322;2022-12-01T09:08:58;5.90;99.90
11818;DHT22;5966;52.402;5.322;2022-12-01T09:11:36;5.90;99.90
11818;DHT22;5966;52.402;5.322;2022-12-01T09:14:07;5.90;99.90
11818;DHT22;5966;52.402;5.322;2022-12-01T09:17:06;5.80;99.90
11818;DHT22;5966;52.402;5.322;2022-12-01T09:19:45;5.90;99.90
11818;DHT22;5966;52.402;5.322;2022-12-01T09:22:21;5.90;99.90
11818;DHT22;5966;52.402;5.322;2022-12-01T09:24:52;5.90;99.90
11818;DHT22;5966;52.402;5.322;2022-12-01T09:27:57;5.90;99.90
11818;DHT22;5966;52.402;5.322;2022-12-01T09:31:09;5.90;99.90
11818;DHT22;5966;52.402;5.322;2022-12-01T09:41:23;6.00;99.90
11818;DHT22;5966;52.402;5.322;2022-12-01T09:44:02;6.10;99.90
11818;DHT22;5966;52.402;5.322;2022-12-01T09:47:04;6.10;99.90
11818;DHT22;5966;52.402;5.322;2022-12-01T09:49:43;6.20;99.90
11818;DHT22;5966;52.402;5.322;2022-12-01T09:52:34;6.20;99.90
11818;DHT22;5966;52.402;5.322;2022-12-01T09:55:10;6.30;99.90
11818;DHT22;5966;52.402;5.322;2022-12-01T09:57:46;6.30;99.90
11818;DHT22;5966;52.402;5.322;2022-12-01T10:00:16;6.30;99.90
11818;DHT22;5966;52.402;5.322;2022-12-01T10:02:51;6.30;99.90
11818;DHT22;5966;52.402;5.322;2022-12-01T10:05:21;6.40;99.90
11818;DHT22;5966;52.402;5.322;2022-12-01T10:07:54;6.50;99.90
11818;DHT22;5966;52.402;5.322;2022-12-01T10:10:44;6.50;99.90
11818;DHT22;5966;52.402;5.322;2022-12-01T10:13:38;6.50;99.90
11818;DHT22;5966;52.402;5.322;2022-12-01T10:16:11;6.40;99.90
11818;DHT22;5966;52.402;5.322;2022-12-01T10:18:57;6.40;99.90
11818;DHT22;5966;52.402;5.322;2022-12-01T10:22:04;6.40;99.90
11818;DHT22;5966;52.402;5.322;2022-12-01T10:24:51;6.30;99.90
11818;DHT22;5966;52.402;5.322;2022-12-01T10:27:33;6.30;99.90
11818;DHT22;5966;52.402;5.322;2022-12-01T10:30:14;6.30;99.90
11818;DHT22;5966;52.402;5.322;2022-12-01T10:32:48;6.40;99.90
11818;DHT22;5966;52.402;5.322;2022-12-01T10:35:27;6.40;99.90
11818;DHT22;5966;52.402;5.322;2022-12-01T10:38:06;6.40;99.90
11818;DHT22;5966;52.402;5.322;2022-12-01T10:40:48;6.40;99.90
11818;DHT22;5966;52.402;5.322;2022-12-01T10:43:40;6.40;99.90
11818;DHT22;5966;52.402;5.322;2022-12-01T10:46:18;6.40;99.90
11818;DHT22;5966;52.402;5.322;2022-12-01T10:48:52;6.50;99.90
11818;DHT22;5966;52.402;5.322;2022-12-01T10:51:26;6.50;99.90
11818;DHT22;5966;52.402;5.322;2022-12-01T10:53:58;6.60;99.90
11818;DHT22;5966;52.402;5.322;2022-12-01T10:56:31;6.70;99.90
11818;DHT22;5966;52.402;5.322;2022-12-01T10:59:21;6.70;99.90
11818;DHT22;5966;52.402;5.322;2022-12-01T11:01:55;6.70;99.90
11818;DHT22;5966;52.402;5.322;2022-12-01T11:04:34;6.80;99.90
11818;DHT22;5966;52.402;5.322;2022-12-01T11:07:04;6.70;99.90
11818;DHT22;5966;52.402;5.322;2022-12-01T11:09:32;6.70;99.90
11818;DHT22;5966;52.402;5.322;2022-12-01T11:12:13;6.70;99.90
11818;DHT22;5966;52.402;5.322;2022-12-01T11:14:43;6.70;99.90
11818;DHT22;5966;52.402;5.322;2022-12-01T11:17:29;6.70;99.90
11818;DHT22;5966;52.402;5.322;2022-12-01T11:19:58;6.80;99.90
11818;DHT22;5966;52.402;5.322;2022-12-01T11:22:43;6.80;99.90
11818;DHT22;5966;52.402;5.322;2022-12-01T11:25:18;6.80;99.90
11818;DHT22;5966;52.402;5.322;2022-12-01T11:27:50;6.80;99.90
11818;DHT22;5966;52.402;5.322;2022-12-01T11:30:22;6.80;99.90
11818;DHT22;5966;52.402;5.322;2022-12-01T11:32:54;6.80;99.90
11818;DHT22;5966;52.402;5.322;2022-12-01T11:35:25;6.90;99.90
11818;DHT22;5966;52.402;5.322;2022-12-01T11:37:55;6.90;99.90
11818;DHT22;5966;52.402;5.322;2022-12-01T11:40:55;6.90;99.90
11818;DHT22;5966;52.402;5.322;2022-12-01T11:43:26;6.90;99.90
11818;DHT22;5966;52.402;5.322;2022-12-01T11:45:59;6.90;99.90
11818;DHT22;5966;52.402;5.322;2022-12-01T11:48:33;6.90;99.90
11818;DHT22;5966;52.402;5.322;2022-12-01T11:51:08;6.90;99.90
11818;DHT22;5966;52.402;5.322;2022-12-01T11:53:39;6.90;99.90
11818;DHT22;5966;52.402;5.322;2022-12-01T11:56:16;7.00;99.90
11818;DHT22;5966;52.402;5.322;2022-12-01T11:58:55;7.10;99.90
11818;DHT22;5966;52.402;5.322;2022-12-01T12:02:05;7.00;99.90
11818;DHT22;5966;52.402;5.322;2022-12-01T12:07:46;7.10;99.90
11818;DHT22;5966;52.402;5.322;2022-12-01T12:10:38;7.10;99.90
11818;DHT22;5966;52.402;5.322;2022-12-01T12:13:28;7.10;99.90
11818;DHT22;5966;52.402;5.322;2022-12-01T12:16:07;7.10;99.90
11818;DHT22;5966;52.402;5.322;2022-12-01T12:19:06;7.10;99.90
11818;DHT22;5966;52.402;5.322;2022-12-01T12:21:45;7.10;99.90
11818;DHT22;5966;52.402;5.322;2022-12-01T12:24:41;7.20;99.90
11818;DHT22;5966;52.402;5.322;2022-12-01T12:27:15;7.20;99.90
11818;DHT22;5966;52.402;5.322;2022-12-01T12:30:00;7.20;99.90
11818;DHT22;5966;52.402;5.322;2022-12-01T12:33:03;7.30;99.90
11818;DHT22;5966;52.402;5.322;2022-12-01T12:35:43;7.30;99.90
11818;DHT22;5966;52.402;5.322;2022-12-01T12:38:39;7.30;99.90
11818;DHT22;5966;52.402;5.322;2022-12-01T12:41:23;7.20;99.90
11818;DHT22;5966;52.402;5.322;2022-12-01T12:47:24;7.20;99.90
11818;DHT22;5966;52.402;5.322;2022-12-01T12:50:05;7.10;99.90
11818;DHT22;5966;52.402;5.322;2022-12-01T12:52:39;7.20;99.90
11818;DHT22;5966;52.402;5.322;2022-12-01T12:55:18;7.10;99.90
11818;DHT22;5966;52.402;5.322;2022-12-01T12:57:51;7.10;99.90
11818;DHT22;5966;52.402;5.322;2022-12-01T13:00:24;7.10;99.90
11818;DHT22;5966;52.402;5.322;2022-12-01T13:02:55;7.10;99.90
11818;DHT22;5966;52.402;5.322;2022-12-01T13:05:28;7.10;99.90
11818;DHT22;5966;52.402;5.322;2022-12-01T13:08:01;7.20;99.90
11818;DHT22;5966;52.402;5.322;2022-12-01T13:10:38;7.20;99.90
11818;DHT22;5966;52.402;5.322;2022-12-01T13:13:19;7.20;99.90
11818;DHT22;5966;52.402;5.322;2022-12-01T13:15:51;7.20;99.90
11818;DHT22;5966;52.402;5.322;2022-12-01T13:18:26;7.30;99.90
11818;DHT22;5966;52.402;5.322;2022-12-01T13:20:56;7.30;99.90
11818;DHT22;5966;52.402;5.322;2022-12-01T13:23:25;7.20;99.90
11818;DHT22;5966;52.402;5.322;2022-12-01T13:26:00;7.20;99.90
11818;DHT22;5966;52.402;5.322;2022-12-01T13:28:35;7.20;99.90
11818;DHT22;5966;52.402;5.322;2022-12-01T13:31:06;7.20;99.90
11818;DHT22;5966;52.402;5.322;2022-12-01T13:33:35;7.20;99.90
11818;DHT22;5966;52.402;5.322;2022-12-01T13:36:08;7.10;99.90
11818;DHT22;5966;52.402;5.322;2022-12-01T13:38:58;7.10;99.90
11818;DHT22;5966;52.402;5.322;2022-12-01T13:41:31;7.10;99.90
11818;DHT22;5966;52.402;5.322;2022-12-01T13:44:03;7.10;99.90
11818;DHT22;5966;52.402;5.322;2022-12-01T13:46:50;7.10;99.90
11818;DHT22;5966;52.402;5.322;2022-12-01T13:49:38;7.10;99.90
11818;DHT22;5966;52.402;5.322;2022-12-01T13:52:28;7.10;99.90
11818;DHT22;5966;52.402;5.322;2022-12-01T13:55:22;7.00;99.90
11818;DHT22;5966;52.402;5.322;2022-12-01T13:58:26;7.00;99.90
11818;DHT22;5966;52.402;5.322;2022-12-01T14:01:44;7.00;99.90
11818;DHT22;5966;52.402;5.322;2022-12-01T14:04:29;7.00;99.90
11818;DHT22;5966;52.402;5.322;2022-12-01T14:07:20;6.90;99.90
11818;DHT22;5966;52.402;5.322;2022-12-01T14:09:52;6.90;99.90
11818;DHT22;5966;52.402;5.322;2022-12-01T14:12:24;6.90;99.90
11818;DHT22;5966;52.402;5.322;2022-12-01T14:15:22;6.90;99.90
11818;DHT22;5966;52.402;5.322;2022-12-01T14:18:04;6.80;99.90
11818;DHT22;5966;52.402;5.322;2022-12-01T14:20:35;6.80;99.90
11818;DHT22;5966;52.402;5.322;2022-12-01T14:23:27;6.80;99.90
11818;DHT22;5966;52.402;5.322;2022-12-01T14:26:15;6.70;99.90
11818;DHT22;5966;52.402;5.322;2022-12-01T14:29:27;6.70;99.90
11818;DHT22;5966;52.402;5.322;2022-12-01T14:32:19;6.70;99.90
11818;DHT22;5966;52.402;5.322;2022-12-01T14:35:10;6.70;99.90
11818;DHT22;5966;52.402;5.322;2022-12-01T14:37:45;6.60;99.90
11818;DHT22;5966;52.402;5.322;2022-12-01T14:40:21;6.60;99.90
11818;DHT22;5966;52.402;5.322;2022-12-01T14:42:54;6.60;99.90
11818;DHT22;5966;52.402;5.322;2022-12-01T14:45:52;6.60;99.90
11818;DHT22;5966;52.402;5.322;2022-12-01T14:48:31;6.60;99.90
11818;DHT22;5966;52.402;5.322;2022-12-01T14:51:14;6.60;99.90
11818;DHT22;5966;52.402;5.322;2022-12-01T14:53:45;6.50;99.90
11818;DHT22;5966;52.402;5.322;2022-12-01T14:56:20;6.50;99.90
11818;DHT22;5966;52.402;5.322;2022-12-01T14:58:53;6.50;99.90
11818;DHT22;5966;52.402;5.322;2022-12-01T15:01:22;6.40;99.90
11818;DHT22;5966;52.402;5.322;2022-12-01T15:03:57;6.40;99.90
11818;DHT22;5966;52.402;5.322;2022-12-01T15:06:28;6.40;99.90
11818;DHT22;5966;52.402;5.322;2022-12-01T15:09:10;6.30;99.90
11818;DHT22;5966;52.402;5.322;2022-12-01T15:12:03;6.30;99.90
11818;DHT22;5966;52.402;5.322;2022-12-01T15:14:36;6.30;99.90
11818;DHT22;5966;52.402;5.322;2022-12-01T15:17:05;6.30;99.90
11818;DHT22;5966;52.402;5.322;2022-12-01T15:19:38;6.20;99.90
11818;DHT22;5966;52.402;5.322;2022-12-01T15:22:11;6.20;99.90
11818;DHT22;5966;52.402;5.322;2022-12-01T15:24:42;6.20;99.90
11818;DHT22;5966;52.402;5.322;2022-12-01T15:27:26;6.20;99.90
11818;DHT22;5966;52.402;5.322;2022-12-01T15:29:55;6.20;99.90
11818;DHT22;5966;52.402;5.322;2022-12-01T15:32:31;6.20;99.90
11818;DHT22;5966;52.402;5.322;2022-12-01T15:35:14;6.10;99.90
11818;DHT22;5966;52.402;5.322;2022-12-01T15:37:51;6.10;99.90
11818;DHT22;5966;52.402;5.322;2022-12-01T15:40:22;6.10;99.90
11818;DHT22;5966;52.402;5.322;2022-12-01T15:43:17;6.00;99.90
11818;DHT22;5966;52.402;5.322;2022-12-01T15:45:50;6.00;99.90
11818;DHT22;5966;52.402;5.322;2022-12-01T15:48:28;5.90;99.90
11818;DHT22;5966;52.402;5.322;2022-12-01T15:51:02;5.90;99.90
11818;DHT22;5966;52.402;5.322;2022-12-01T15:53:35;5.90;99.90
11818;DHT22;5966;52.402;5.322;2022-12-01T15:56:08;5.90;99.90
11818;DHT22;5966;52.402;5.322;2022-12-01T15:58:41;5.80;99.90
11818;DHT22;5966;52.402;5.322;2022-12-01T16:01:14;5.80;99.90
11818;DHT22;5966;52.402;5.322;2022-12-01T16:03:54;5.70;99.90
11818;DHT22;5966;52.402;5.322;2022-12-01T16:06:25;5.80;99.90
11818;DHT22;5966;52.402;5.322;2022-12-01T16:08:56;5.70;99.90
11818;DHT22;5966;52.402;5.322;2022-12-01T16:11:26;5.70;99.90
11818;DHT22;5966;52.402;5.322;2022-12-01T16:14:00;5.70;99.90
11818;DHT22;5966;52.402;5.322;2022-12-01T16:16:43;5.70;99.90
11818;DHT22;5966;52.402;5.322;2022-12-01T16:19:27;5.70;99.90
11818;DHT22;5966;52.402;5.322;2022-12-01T16:22:15;5.60;99.90
11818;DHT22;5966;52.402;5.322;2022-12-01T16:24:46;5.70;99.90
11818;DHT22;5966;52.402;5.322;2022-12-01T16:27:19;5.70;99.90
11818;DHT22;5966;52.402;5.322;2022-12-01T16:29:55;5.70;99.90
11818;DHT22;5966;52.402;5.322;2022-12-01T16:32:38;5.70;99.90
11818;DHT22;5966;52.402;5.322;2022-12-01T16:35:21;5.70;99.90
11818;DHT22;5966;52.402;5.322;2022-12-01T16:37:51;5.70;99.90
11818;DHT22;5966;52.402;5.322;2022-12-01T16:40:24;5.70;99.90
11818;DHT22;5966;52.402;5.322;2022-12-01T16:42:56;5.70;99.90
11818;DHT22;5966;52.402;5.322;2022-12-01T16:45:24;5.70;99.90
11818;DHT22;5966;52.402;5.322;2022-12-01T16:47:52;5.70;99.90
11818;DHT22;5966;52.402;5.322;2022-12-01T16:50:21;5.70;99.90
11818;DHT22;5966;52.402;5.322;2022-12-01T16:52:52;5.70;99.90
11818;DHT22;5966;52.402;5.322;2022-12-01T16:55:25;5.70;99.90
11818;DHT22;5966;52.402;5.322;2022-12-01T16:57:54;5.60;99.90
11818;DHT22;5966;52.402;5.322;2022-12-01T17:00:25;5.60;99.90
11818;DHT22;5966;52.402;5.322;2022-12-01T17:02:55;5.50;99.90
11818;DHT22;5966;52.402;5.322;2022-12-01T17:05:23;5.50;99.90
11818;DHT22;5966;52.402;5.322;2022-12-01T17:08:01;5.50;99.90
11818;DHT22;5966;52.402;5.322;2022-12-01T17:10:30;5.50;99.90
11818;DHT22;5966;52.402;5.322;2022-12-01T17:13:01;5.50;99.90
11818;DHT22;5966;52.402;5.322;2022-12-01T17:15:32;5.50;99.90
11818;DHT22;5966;52.402;5.322;2022-12-01T17:17:59;5.50;99.90
11818;DHT22;5966;52.402;5.322;2022-12-01T17:20:27;5.40;99.90
11818;DHT22;5966;52.402;5.322;2022-12-01T17:23:06;5.40;99.90
11818;DHT22;5966;52.402;5.322;2022-12-01T17:25:41;5.30;99.90
11818;DHT22;5966;52.402;5.322;2022-12-01T17:28:17;5.30;99.90
11818;DHT22;5966;52.402;5.322;2022-12-01T17:30:59;5.20;99.90